sensor_id;sensor_type;location;lat;lon;timestamp;P1;durP1;ratioP1;P2;durP2;ratioP2
55465;SDS011;41329;41.594;23.810;2023-04-30T00:02:06;29.53;;;21.30;;
55465;SDS011;41329;41.594;23.810;2023-04-30T00:04:32;26.77;;;22.13;;
55465;SDS011;41329;41.594;23.810;2023-04-30T00:06:57;37.70;;;24.57;;
55465;SDS011;41329;41.594;23.810;2023-04-30T00:09:23;31.97;;;21.90;;
55465;SDS011;41329;41.594;23.810;2023-04-30T00:11:48;17.70;;;16.00;;
55465;SDS011;41329;41.594;23.810;2023-04-30T00:14:14;11.30;;;10.50;;
55465;SDS011;41329;41.594;23.810;2023-04-30T00:16:39;9.93;;;9.27;;
55465;SDS011;41329;41.594;23.810;2023-04-30T00:19:05;8.63;;;8.03;;
55465;SDS011;41329;41.594;23.810;2023-04-30T00:21:31;9.23;;;8.43;;
55465;SDS011;41329;41.594;23.810;2023-04-30T00:23:57;9.30;;;8.60;;
55465;SDS011;41329;41.594;23.810;2023-04-30T00:26:24;9.23;;;8.43;;
55465;SDS011;41329;41.594;23.810;2023-04-30T00:28:50;9.23;;;8.47;;
55465;SDS011;41329;41.594;23.810;2023-04-30T00:31:15;7.50;;;7.10;;
55465;SDS011;41329;41.594;23.810;2023-04-30T00:33:40;7.47;;;7.07;;
55465;SDS011;41329;41.594;23.810;2023-04-30T00:36:06;8.03;;;7.37;;
55465;SDS011;41329;41.594;23.810;2023-04-30T00:38:31;7.43;;;6.93;;
55465;SDS011;41329;41.594;23.810;2023-04-30T00:40:57;8.27;;;7.57;;
55465;SDS011;41329;41.594;23.810;2023-04-30T00:43:22;8.00;;;7.50;;
55465;SDS011;41329;41.594;23.810;2023-04-30T00:45:48;8.13;;;7.57;;
55465;SDS011;41329;41.594;23.810;2023-04-30T00:48:13;7.70;;;7.30;;
55465;SDS011;41329;41.594;23.810;2023-04-30T00:50:40;7.20;;;6.80;;
55465;SDS011;41329;41.594;23.810;2023-04-30T00:53:08;7.77;;;7.33;;
55465;SDS011;41329;41.594;23.810;2023-04-30T00:55:33;7.13;;;6.73;;
55465;SDS011;41329;41.594;23.810;2023-04-30T00:57:59;7.93;;;7.23;;
55465;SDS011;41329;41.594;23.810;2023-04-30T01:00:25;7.90;;;7.40;;
55465;SDS011;41329;41.594;23.810;2023-04-30T01:02:51;7.30;;;6.90;;
55465;SDS011;41329;41.594;23.810;2023-04-30T01:05:17;7.73;;;7.23;;
55465;SDS011;41329;41.594;23.810;2023-04-30T01:07:42;6.73;;;6.23;;
55465;SDS011;41329;41.594;23.810;2023-04-30T01:10:11;5.97;;;5.57;;
55465;SDS011;41329;41.594;23.810;2023-04-30T01:15:30;6.10;;;5.70;;
55465;SDS011;41329;41.594;23.810;2023-04-30T01:18:17;5.87;;;5.40;;
55465;SDS011;41329;41.594;23.810;2023-04-30T01:21:04;6.63;;;6.23;;
55465;SDS011;41329;41.594;23.810;2023-04-30T01:28:36;6.67;;;6.07;;
55465;SDS011;41329;41.594;23.810;2023-04-30T01:31:09;6.40;;;6.00;;
55465;SDS011;41329;41.594;23.810;2023-04-30T01:33:36;6.27;;;5.87;;
55465;SDS011;41329;41.594;23.810;2023-04-30T01:41:27;8.80;;;7.90;;
55465;SDS011;41329;41.594;23.810;2023-04-30T01:47:03;7.03;;;6.63;;
55465;SDS011;41329;41.594;23.810;2023-04-30T01:52:03;9.20;;;8.40;;
55465;SDS011;41329;41.594;23.810;2023-04-30T01:55:06;10.40;;;9.70;;
55465;SDS011;41329;41.594;23.810;2023-04-30T01:57:42;12.80;;;11.67;;
55465;SDS011;41329;41.594;23.810;2023-04-30T02:00:15;12.93;;;11.80;;
55465;SDS011;41329;41.594;23.810;2023-04-30T02:02:41;12.30;;;11.30;;
55465;SDS011;41329;41.594;23.810;2023-04-30T02:05:07;12.43;;;11.43;;
55465;SDS011;41329;41.594;23.810;2023-04-30T02:07:36;12.17;;;11.00;;
55465;SDS011;41329;41.594;23.810;2023-04-30T02:10:05;10.47;;;9.57;;
55465;SDS011;41329;41.594;23.810;2023-04-30T02:12:32;9.53;;;8.83;;
55465;SDS011;41329;41.594;23.810;2023-04-30T02:14:57;9.67;;;8.97;;
55465;SDS011;41329;41.594;23.810;2023-04-30T02:17:22;9.37;;;8.77;;
55465;SDS011;41329;41.594;23.810;2023-04-30T02:19:48;9.43;;;8.83;;
55465;SDS011;41329;41.594;23.810;2023-04-30T02:22:13;8.83;;;8.33;;
55465;SDS011;41329;41.594;23.810;2023-04-30T02:24:39;8.90;;;8.30;;
55465;SDS011;41329;41.594;23.810;2023-04-30T02:27:04;8.63;;;8.03;;
55465;SDS011;41329;41.594;23.810;2023-04-30T02:29:29;9.47;;;8.87;;
55465;SDS011;41329;41.594;23.810;2023-04-30T02:31:57;8.30;;;7.70;;
55465;SDS011;41329;41.594;23.810;2023-04-30T02:34:23;7.83;;;7.33;;
55465;SDS011;41329;41.594;23.810;2023-04-30T02:36:48;7.43;;;6.97;;
55465;SDS011;41329;41.594;23.810;2023-04-30T02:39:14;9.63;;;8.83;;
55465;SDS011;41329;41.594;23.810;2023-04-30T02:41:39;10.20;;;9.50;;
55465;SDS011;41329;41.594;23.810;2023-04-30T02:44:04;10.83;;;9.97;;
55465;SDS011;41329;41.594;23.810;2023-04-30T02:46:30;10.73;;;10.03;;
55465;SDS011;41329;41.594;23.810;2023-04-30T02:48:55;9.87;;;9.07;;
55465;SDS011;41329;41.594;23.810;2023-04-30T02:51:21;8.80;;;8.30;;
55465;SDS011;41329;41.594;23.810;2023-04-30T02:53:46;9.90;;;9.07;;
55465;SDS011;41329;41.594;23.810;2023-04-30T02:56:11;8.87;;;8.27;;
55465;SDS011;41329;41.594;23.810;2023-04-30T02:58:37;10.67;;;9.97;;
55465;SDS011;41329;41.594;23.810;2023-04-30T03:01:02;9.90;;;9.30;;
55465;SDS011;41329;41.594;23.810;2023-04-30T03:03:28;9.37;;;8.77;;
55465;SDS011;41329;41.594;23.810;2023-04-30T03:05:53;11.23;;;10.30;;
55465;SDS011;41329;41.594;23.810;2023-04-30T03:08:20;12.43;;;11.43;;
55465;SDS011;41329;41.594;23.810;2023-04-30T03:10:46;9.87;;;9.23;;
55465;SDS011;41329;41.594;23.810;2023-04-30T03:13:11;9.33;;;8.73;;
55465;SDS011;41329;41.594;23.810;2023-04-30T03:15:37;8.40;;;7.90;;
55465;SDS011;41329;41.594;23.810;2023-04-30T03:18:02;7.27;;;6.87;;
55465;SDS011;41329;41.594;23.810;2023-04-30T03:20:28;6.90;;;6.40;;
55465;SDS011;41329;41.594;23.810;2023-04-30T03:22:53;7.30;;;6.70;;
55465;SDS011;41329;41.594;23.810;2023-04-30T03:25:19;6.97;;;6.43;;
55465;SDS011;41329;41.594;23.810;2023-04-30T03:27:44;7.40;;;6.90;;
55465;SDS011;41329;41.594;23.810;2023-04-30T03:30:10;6.93;;;6.40;;
55465;SDS011;41329;41.594;23.810;2023-04-30T03:32:35;6.80;;;6.47;;
55465;SDS011;41329;41.594;23.810;2023-04-30T03:35:01;6.87;;;6.40;;
55465;SDS011;41329;41.594;23.810;2023-04-30T03:37:26;6.93;;;6.50;;
55465;SDS011;41329;41.594;23.810;2023-04-30T03:39:51;8.07;;;7.57;;
55465;SDS011;41329;41.594;23.810;2023-04-30T03:42:17;7.13;;;6.63;;
55465;SDS011;41329;41.594;23.810;2023-04-30T03:44:42;7.43;;;6.93;;
55465;SDS011;41329;41.594;23.810;2023-04-30T03:47:07;10.37;;;9.67;;
55465;SDS011;41329;41.594;23.810;2023-04-30T03:49:33;11.63;;;10.57;;
55465;SDS011;41329;41.594;23.810;2023-04-30T03:51:58;11.67;;;10.67;;
55465;SDS011;41329;41.594;23.810;2023-04-30T03:54:25;13.40;;;12.47;;
55465;SDS011;41329;41.594;23.810;2023-04-30T03:56:50;15.63;;;14.33;;
55465;SDS011;41329;41.594;23.810;2023-04-30T03:59:16;16.20;;;14.87;;
55465;SDS011;41329;41.594;23.810;2023-04-30T04:01:41;12.07;;;11.07;;
55465;SDS011;41329;41.594;23.810;2023-04-30T04:04:07;10.67;;;9.93;;
55465;SDS011;41329;41.594;23.810;2023-04-30T04:06:33;8.97;;;8.47;;
55465;SDS011;41329;41.594;23.810;2023-04-30T04:08:58;9.47;;;8.87;;
55465;SDS011;41329;41.594;23.810;2023-04-30T04:11:24;9.57;;;8.93;;
55465;SDS011;41329;41.594;23.810;2023-04-30T04:13:50;8.90;;;8.40;;
55465;SDS011;41329;41.594;23.810;2023-04-30T04:16:15;9.33;;;8.63;;
55465;SDS011;41329;41.594;23.810;2023-04-30T04:18:40;8.70;;;8.10;;
55465;SDS011;41329;41.594;23.810;2023-04-30T04:21:06;9.80;;;9.10;;
55465;SDS011;41329;41.594;23.810;2023-04-30T04:23:31;9.07;;;8.47;;
55465;SDS011;41329;41.594;23.810;2023-04-30T04:25:57;8.33;;;7.63;;
55465;SDS011;41329;41.594;23.810;2023-04-30T04:28:22;8.60;;;8.10;;
55465;SDS011;41329;41.594;23.810;2023-04-30T04:30:48;8.57;;;8.03;;
55465;SDS011;41329;41.594;23.810;2023-04-30T04:33:13;8.33;;;7.83;;
55465;SDS011;41329;41.594;23.810;2023-04-30T04:35:39;11.37;;;10.57;;
55465;SDS011;41329;41.594;23.810;2023-04-30T04:38:04;13.57;;;12.67;;
55465;SDS011;41329;41.594;23.810;2023-04-30T04:40:30;13.90;;;13.00;;
55465;SDS011;41329;41.594;23.810;2023-04-30T04:42:55;12.57;;;11.33;;
55465;SDS011;41329;41.594;23.810;2023-04-30T04:45:21;20.23;;;18.43;;
55465;SDS011;41329;41.594;23.810;2023-04-30T04:47:47;15.07;;;13.83;;
55465;SDS011;41329;41.594;23.810;2023-04-30T04:50:13;10.57;;;9.87;;
55465;SDS011;41329;41.594;23.810;2023-04-30T04:52:38;12.07;;;11.07;;
55465;SDS011;41329;41.594;23.810;2023-04-30T04:55:04;22.33;;;20.40;;
55465;SDS011;41329;41.594;23.810;2023-04-30T04:57:31;17.57;;;16.30;;
55465;SDS011;41329;41.594;23.810;2023-04-30T04:59:56;15.37;;;14.37;;
55465;SDS011;41329;41.594;23.810;2023-04-30T05:02:22;16.90;;;14.23;;
55465;SDS011;41329;41.594;23.810;2023-04-30T05:04:48;17.73;;;16.53;;
55465;SDS011;41329;41.594;23.810;2023-04-30T05:07:15;17.63;;;16.07;;
55465;SDS011;41329;41.594;23.810;2023-04-30T05:09:41;12.87;;;12.00;;
55465;SDS011;41329;41.594;23.810;2023-04-30T05:12:07;15.50;;;14.23;;
55465;SDS011;41329;41.594;23.810;2023-04-30T05:14:32;13.50;;;12.50;;
55465;SDS011;41329;41.594;23.810;2023-04-30T05:16:57;11.60;;;10.97;;
55465;SDS011;41329;41.594;23.810;2023-04-30T05:19:23;11.90;;;11.20;;
55465;SDS011;41329;41.594;23.810;2023-04-30T05:21:48;11.80;;;11.20;;
55465;SDS011;41329;41.594;23.810;2023-04-30T05:24:14;12.20;;;11.50;;
55465;SDS011;41329;41.594;23.810;2023-04-30T05:26:39;11.73;;;11.00;;
55465;SDS011;41329;41.594;23.810;2023-04-30T05:29:05;11.67;;;11.03;;
55465;SDS011;41329;41.594;23.810;2023-04-30T05:31:30;12.37;;;11.57;;
55465;SDS011;41329;41.594;23.810;2023-04-30T05:33:56;12.43;;;11.63;;
55465;SDS011;41329;41.594;23.810;2023-04-30T05:36:22;13.40;;;12.33;;
55465;SDS011;41329;41.594;23.810;2023-04-30T05:38:47;12.30;;;11.50;;
55465;SDS011;41329;41.594;23.810;2023-04-30T05:41:12;12.40;;;11.47;;
55465;SDS011;41329;41.594;23.810;2023-04-30T05:43:38;12.03;;;11.30;;
55465;SDS011;41329;41.594;23.810;2023-04-30T05:46:03;11.80;;;11.00;;
55465;SDS011;41329;41.594;23.810;2023-04-30T05:48:29;23.97;;;21.57;;
55465;SDS011;41329;41.594;23.810;2023-04-30T05:50:54;14.30;;;13.13;;
55465;SDS011;41329;41.594;23.810;2023-04-30T05:53:20;12.27;;;11.50;;
55465;SDS011;41329;41.594;23.810;2023-04-30T05:55:45;12.13;;;11.27;;
55465;SDS011;41329;41.594;23.810;2023-04-30T05:58:11;12.40;;;11.53;;
55465;SDS011;41329;41.594;23.810;2023-04-30T06:00:36;12.93;;;11.80;;
55465;SDS011;41329;41.594;23.810;2023-04-30T06:03:03;16.27;;;15.13;;
55465;SDS011;41329;41.594;23.810;2023-04-30T06:05:28;15.47;;;14.50;;
55465;SDS011;41329;41.594;23.810;2023-04-30T06:07:53;15.67;;;14.30;;
55465;SDS011;41329;41.594;23.810;2023-04-30T06:10:19;14.60;;;13.43;;
55465;SDS011;41329;41.594;23.810;2023-04-30T06:12:45;14.77;;;13.47;;
55465;SDS011;41329;41.594;23.810;2023-04-30T06:15:10;14.60;;;13.70;;
55465;SDS011;41329;41.594;23.810;2023-04-30T06:17:35;13.47;;;12.43;;
55465;SDS011;41329;41.594;23.810;2023-04-30T06:20:02;17.20;;;15.83;;
55465;SDS011;41329;41.594;23.810;2023-04-30T06:22:31;17.83;;;16.37;;
55465;SDS011;41329;41.594;23.810;2023-04-30T06:24:57;18.40;;;17.20;;
55465;SDS011;41329;41.594;23.810;2023-04-30T06:27:22;18.53;;;17.03;;
55465;SDS011;41329;41.594;23.810;2023-04-30T06:29:49;16.47;;;15.30;;
55465;SDS011;41329;41.594;23.810;2023-04-30T06:32:14;13.90;;;13.00;;
55465;SDS011;41329;41.594;23.810;2023-04-30T06:34:40;13.53;;;12.60;;
55465;SDS011;41329;41.594;23.810;2023-04-30T06:37:06;13.87;;;12.90;;
55465;SDS011;41329;41.594;23.810;2023-04-30T06:39:31;13.30;;;12.23;;
55465;SDS011;41329;41.594;23.810;2023-04-30T06:41:56;11.57;;;10.67;;
55465;SDS011;41329;41.594;23.810;2023-04-30T06:44:22;11.20;;;10.40;;
55465;SDS011;41329;41.594;23.810;2023-04-30T06:46:47;10.00;;;9.30;;
55465;SDS011;41329;41.594;23.810;2023-04-30T06:49:13;8.80;;;8.30;;
55465;SDS011;41329;41.594;23.810;2023-04-30T06:51:39;10.20;;;9.33;;
55465;SDS011;41329;41.594;23.810;2023-04-30T06:54:05;8.30;;;7.70;;
55465;SDS011;41329;41.594;23.810;2023-04-30T06:56:31;8.93;;;8.17;;
55465;SDS011;41329;41.594;23.810;2023-04-30T06:58:56;9.57;;;8.87;;
55465;SDS011;41329;41.594;23.810;2023-04-30T07:01:21;9.60;;;8.80;;
55465;SDS011;41329;41.594;23.810;2023-04-30T07:03:47;10.90;;;9.83;;
55465;SDS011;41329;41.594;23.810;2023-04-30T07:06:12;75.13;;;26.77;;
55465;SDS011;41329;41.594;23.810;2023-04-30T07:08:38;8.48;;;7.88;;
55465;SDS011;41329;41.594;23.810;2023-04-30T07:11:05;8.10;;;7.50;;
55465;SDS011;41329;41.594;23.810;2023-04-30T07:13:30;7.28;;;6.78;;
55465;SDS011;41329;41.594;23.810;2023-04-30T07:15:56;73.65;;;41.85;;
55465;SDS011;41329;41.594;23.810;2023-04-30T07:18:22;7.37;;;6.90;;
55465;SDS011;41329;41.594;23.810;2023-04-30T07:20:47;6.07;;;5.68;;
55465;SDS011;41329;41.594;23.810;2023-04-30T07:23:13;5.53;;;5.13;;
55465;SDS011;41329;41.594;23.810;2023-04-30T07:25:38;10.23;;;9.32;;
55465;SDS011;41329;41.594;23.810;2023-04-30T07:28:04;7.88;;;7.38;;
55465;SDS011;41329;41.594;23.810;2023-04-30T07:30:29;5.75;;;5.35;;
55465;SDS011;41329;41.594;23.810;2023-04-30T07:32:55;5.97;;;5.20;;
55465;SDS011;41329;41.594;23.810;2023-04-30T07:35:20;5.22;;;4.80;;
55465;SDS011;41329;41.594;23.810;2023-04-30T07:37:46;6.00;;;5.60;;
55465;SDS011;41329;41.594;23.810;2023-04-30T07:40:11;5.07;;;4.75;;
55465;SDS011;41329;41.594;23.810;2023-04-30T07:42:40;7.07;;;5.65;;
55465;SDS011;41329;41.594;23.810;2023-04-30T07:45:09;5.78;;;4.97;;
55465;SDS011;41329;41.594;23.810;2023-04-30T07:47:35;5.45;;;5.00;;
55465;SDS011;41329;41.594;23.810;2023-04-30T07:50:00;5.10;;;4.80;;
55465;SDS011;41329;41.594;23.810;2023-04-30T07:52:26;5.25;;;4.93;;
55465;SDS011;41329;41.594;23.810;2023-04-30T07:54:52;4.97;;;4.68;;
55465;SDS011;41329;41.594;23.810;2023-04-30T07:57:18;5.35;;;5.05;;
55465;SDS011;41329;41.594;23.810;2023-04-30T07:59:43;5.38;;;5.07;;
55465;SDS011;41329;41.594;23.810;2023-04-30T08:02:08;6.30;;;5.70;;
55465;SDS011;41329;41.594;23.810;2023-04-30T08:04:34;6.93;;;6.47;;
55465;SDS011;41329;41.594;23.810;2023-04-30T08:06:59;7.15;;;6.55;;
55465;SDS011;41329;41.594;23.810;2023-04-30T08:09:26;7.55;;;7.15;;
55465;SDS011;41329;41.594;23.810;2023-04-30T08:11:51;8.32;;;7.75;;
55465;SDS011;41329;41.594;23.810;2023-04-30T08:14:17;9.15;;;8.55;;
55465;SDS011;41329;41.594;23.810;2023-04-30T08:16:43;6.70;;;6.30;;
55465;SDS011;41329;41.594;23.810;2023-04-30T08:19:08;7.07;;;6.57;;
55465;SDS011;41329;41.594;23.810;2023-04-30T08:21:34;6.32;;;5.82;;
55465;SDS011;41329;41.594;23.810;2023-04-30T08:24:00;7.07;;;6.65;;
55465;SDS011;41329;41.594;23.810;2023-04-30T08:26:26;6.28;;;5.88;;
55465;SDS011;41329;41.594;23.810;2023-04-30T08:28:51;7.10;;;6.57;;
55465;SDS011;41329;41.594;23.810;2023-04-30T08:31:17;6.97;;;6.47;;
55465;SDS011;41329;41.594;23.810;2023-04-30T08:33:42;6.35;;;5.95;;
55465;SDS011;41329;41.594;23.810;2023-04-30T08:36:07;6.72;;;6.30;;
55465;SDS011;41329;41.594;23.810;2023-04-30T08:38:33;5.35;;;5.05;;
55465;SDS011;41329;41.594;23.810;2023-04-30T08:41:08;5.68;;;5.28;;
55465;SDS011;41329;41.594;23.810;2023-04-30T08:43:36;4.45;;;4.25;;
55465;SDS011;41329;41.594;23.810;2023-04-30T08:46:02;5.55;;;5.15;;
55465;SDS011;41329;41.594;23.810;2023-04-30T08:48:28;8.20;;;4.60;;
55465;SDS011;41329;41.594;23.810;2023-04-30T08:50:55;4.63;;;4.25;;
55465;SDS011;41329;41.594;23.810;2023-04-30T08:53:23;3.60;;;3.03;;
55465;SDS011;41329;41.594;23.810;2023-04-30T08:55:48;7.88;;;3.90;;
55465;SDS011;41329;41.594;23.810;2023-04-30T08:58:13;4.57;;;4.25;;
55465;SDS011;41329;41.594;23.810;2023-04-30T09:00:40;3.92;;;3.63;;
55465;SDS011;41329;41.594;23.810;2023-04-30T09:03:06;3.80;;;3.53;;
55465;SDS011;41329;41.594;23.810;2023-04-30T09:05:32;3.90;;;3.60;;
55465;SDS011;41329;41.594;23.810;2023-04-30T09:07:57;4.30;;;3.88;;
55465;SDS011;41329;41.594;23.810;2023-04-30T09:10:23;4.32;;;4.03;;
55465;SDS011;41329;41.594;23.810;2023-04-30T09:15:25;3.65;;;3.45;;
55465;SDS011;41329;41.594;23.810;2023-04-30T09:17:54;4.03;;;3.70;;
55465;SDS011;41329;41.594;23.810;2023-04-30T09:20:32;6.03;;;3.42;;
55465;SDS011;41329;41.594;23.810;2023-04-30T09:23:08;2.95;;;2.67;;
55465;SDS011;41329;41.594;23.810;2023-04-30T09:25:40;4.25;;;3.35;;
55465;SDS011;41329;41.594;23.810;2023-04-30T09:28:10;3.25;;;3.05;;
55465;SDS011;41329;41.594;23.810;2023-04-30T09:30:36;2.88;;;2.67;;
55465;SDS011;41329;41.594;23.810;2023-04-30T09:33:02;3.80;;;3.08;;
55465;SDS011;41329;41.594;23.810;2023-04-30T09:35:29;5.35;;;3.42;;
55465;SDS011;41329;41.594;23.810;2023-04-30T09:38:02;18.02;;;11.60;;
55465;SDS011;41329;41.594;23.810;2023-04-30T09:40:34;3.50;;;3.15;;
55465;SDS011;41329;41.594;23.810;2023-04-30T09:43:02;2.85;;;2.65;;
55465;SDS011;41329;41.594;23.810;2023-04-30T09:45:41;3.63;;;3.33;;
55465;SDS011;41329;41.594;23.810;2023-04-30T09:48:08;3.10;;;2.80;;
55465;SDS011;41329;41.594;23.810;2023-04-30T09:50:38;3.30;;;3.00;;
55465;SDS011;41329;41.594;23.810;2023-04-30T09:53:08;3.80;;;3.50;;
55465;SDS011;41329;41.594;23.810;2023-04-30T09:55:35;2.42;;;2.17;;
55465;SDS011;41329;41.594;23.810;2023-04-30T09:58:04;2.80;;;2.58;;
55465;SDS011;41329;41.594;23.810;2023-04-30T10:00:33;3.13;;;2.90;;
55465;SDS011;41329;41.594;23.810;2023-04-30T10:03:00;2.92;;;2.42;;
55465;SDS011;41329;41.594;23.810;2023-04-30T10:05:33;3.17;;;2.30;;
55465;SDS011;41329;41.594;23.810;2023-04-30T10:08:02;2.25;;;2.13;;
55465;SDS011;41329;41.594;23.810;2023-04-30T10:10:32;2.78;;;2.58;;
55465;SDS011;41329;41.594;23.810;2023-04-30T10:13:02;5.40;;;4.90;;
55465;SDS011;41329;41.594;23.810;2023-04-30T10:15:31;9.13;;;8.52;;
55465;SDS011;41329;41.594;23.810;2023-04-30T10:18:08;2.33;;;2.22;;
55465;SDS011;41329;41.594;23.810;2023-04-30T10:20:38;3.33;;;3.13;;
55465;SDS011;41329;41.594;23.810;2023-04-30T10:23:04;3.33;;;2.70;;
55465;SDS011;41329;41.594;23.810;2023-04-30T10:25:31;2.45;;;2.35;;
55465;SDS011;41329;41.594;23.810;2023-04-30T10:27:56;4.05;;;2.45;;
55465;SDS011;41329;41.594;23.810;2023-04-30T10:30:22;2.25;;;2.15;;
55465;SDS011;41329;41.594;23.810;2023-04-30T10:35:40;2.10;;;2.00;;
55465;SDS011;41329;41.594;23.810;2023-04-30T10:38:17;1.83;;;1.70;;
55465;SDS011;41329;41.594;23.810;2023-04-30T10:40:47;1.85;;;1.75;;
55465;SDS011;41329;41.594;23.810;2023-04-30T10:43:12;3.50;;;1.98;;
55465;SDS011;41329;41.594;23.810;2023-04-30T10:45:40;1.90;;;1.80;;
55465;SDS011;41329;41.594;23.810;2023-04-30T10:48:08;2.25;;;1.52;;
55465;SDS011;41329;41.594;23.810;2023-04-30T10:50:40;1.40;;;1.30;;
55465;SDS011;41329;41.594;23.810;2023-04-30T10:53:07;1.90;;;1.80;;
55465;SDS011;41329;41.594;23.810;2023-04-30T10:55:51;3.00;;;2.80;;
55465;SDS011;41329;41.594;23.810;2023-04-30T10:58:25;1.98;;;1.85;;
55465;SDS011;41329;41.594;23.810;2023-04-30T11:01:02;1.58;;;1.48;;
55465;SDS011;41329;41.594;23.810;2023-04-30T11:03:33;2.05;;;1.85;;
55465;SDS011;41329;41.594;23.810;2023-04-30T11:06:00;8.68;;;7.95;;
55465;SDS011;41329;41.594;23.810;2023-04-30T11:08:35;2.40;;;2.20;;
55465;SDS011;41329;41.594;23.810;2023-04-30T11:11:02;1.30;;;1.20;;
55465;SDS011;41329;41.594;23.810;2023-04-30T11:13:37;2.55;;;2.30;;
55465;SDS011;41329;41.594;23.810;2023-04-30T11:16:04;2.22;;;1.77;;
55465;SDS011;41329;41.594;23.810;2023-04-30T11:18:30;2.05;;;1.95;;
55465;SDS011;41329;41.594;23.810;2023-04-30T11:20:56;2.13;;;1.92;;
55465;SDS011;41329;41.594;23.810;2023-04-30T11:23:22;4.00;;;2.10;;
55465;SDS011;41329;41.594;23.810;2023-04-30T11:25:52;2.25;;;1.77;;
55465;SDS011;41329;41.594;23.810;2023-04-30T11:28:25;1.95;;;1.70;;
55465;SDS011;41329;41.594;23.810;2023-04-30T11:30:52;5.22;;;2.40;;
55465;SDS011;41329;41.594;23.810;2023-04-30T11:33:33;2.45;;;1.80;;
55465;SDS011;41329;41.594;23.810;2023-04-30T11:36:00;2.28;;;1.75;;
55465;SDS011;41329;41.594;23.810;2023-04-30T11:40:52;1.80;;;1.70;;
55465;SDS011;41329;41.594;23.810;2023-04-30T11:43:25;1.75;;;1.65;;
55465;SDS011;41329;41.594;23.810;2023-04-30T11:48:39;2.05;;;1.27;;
55465;SDS011;41329;41.594;23.810;2023-04-30T11:53:39;4.95;;;1.13;;
55465;SDS011;41329;41.594;23.810;2023-04-30T11:56:06;0.80;;;0.80;;
55465;SDS011;41329;41.594;23.810;2023-04-30T11:58:32;1.20;;;0.80;;
55465;SDS011;41329;41.594;23.810;2023-04-30T12:00:58;0.80;;;0.80;;
55465;SDS011;41329;41.594;23.810;2023-04-30T12:03:24;0.88;;;0.88;;
55465;SDS011;41329;41.594;23.810;2023-04-30T12:05:51;1.23;;;0.85;;
55465;SDS011;41329;41.594;23.810;2023-04-30T12:08:17;1.65;;;1.55;;
55465;SDS011;41329;41.594;23.810;2023-04-30T12:10:43;1.13;;;1.10;;
55465;SDS011;41329;41.594;23.810;2023-04-30T12:13:12;1.80;;;0.95;;
55465;SDS011;41329;41.594;23.810;2023-04-30T12:15:38;1.25;;;0.80;;
55465;SDS011;41329;41.594;23.810;2023-04-30T12:18:09;1.00;;;0.90;;
55465;SDS011;41329;41.594;23.810;2023-04-30T12:20:37;1.05;;;1.05;;
55465;SDS011;41329;41.594;23.810;2023-04-30T12:23:04;0.93;;;0.75;;
55465;SDS011;41329;41.594;23.810;2023-04-30T12:25:30;0.70;;;0.70;;
55465;SDS011;41329;41.594;23.810;2023-04-30T12:27:57;0.95;;;0.90;;
55465;SDS011;41329;41.594;23.810;2023-04-30T12:30:24;0.82;;;0.82;;
55465;SDS011;41329;41.594;23.810;2023-04-30T12:32:55;1.63;;;1.50;;
55465;SDS011;41329;41.594;23.810;2023-04-30T12:35:22;1.10;;;1.00;;
55465;SDS011;41329;41.594;23.810;2023-04-30T12:37:49;1.20;;;1.10;;
55465;SDS011;41329;41.594;23.810;2023-04-30T12:40:19;1.33;;;0.80;;
55465;SDS011;41329;41.594;23.810;2023-04-30T12:42:50;0.90;;;0.90;;
55465;SDS011;41329;41.594;23.810;2023-04-30T12:48:18;0.70;;;0.70;;
55465;SDS011;41329;41.594;23.810;2023-04-30T12:53:27;1.33;;;0.80;;
55465;SDS011;41329;41.594;23.810;2023-04-30T12:58:50;0.77;;;0.77;;
55465;SDS011;41329;41.594;23.810;2023-04-30T13:01:19;0.93;;;0.93;;
55465;SDS011;41329;41.594;23.810;2023-04-30T13:03:45;3.22;;;1.10;;
55465;SDS011;41329;41.594;23.810;2023-04-30T13:06:12;1.48;;;1.20;;
55465;SDS011;41329;41.594;23.810;2023-04-30T13:08:37;3.63;;;1.10;;
55465;SDS011;41329;41.594;23.810;2023-04-30T13:11:03;3.67;;;1.23;;
55465;SDS011;41329;41.594;23.810;2023-04-30T13:13:29;1.23;;;1.13;;
55465;SDS011;41329;41.594;23.810;2023-04-30T13:15:55;1.08;;;1.08;;
55465;SDS011;41329;41.594;23.810;2023-04-30T13:18:20;3.17;;;1.20;;
55465;SDS011;41329;41.594;23.810;2023-04-30T13:20:46;1.42;;;1.33;;
55465;SDS011;41329;41.594;23.810;2023-04-30T13:23:11;1.60;;;1.50;;
55465;SDS011;41329;41.594;23.810;2023-04-30T13:25:37;1.55;;;1.45;;
55465;SDS011;41329;41.594;23.810;2023-04-30T13:28:04;1.38;;;1.27;;
55465;SDS011;41329;41.594;23.810;2023-04-30T13:30:29;1.70;;;1.60;;
55465;SDS011;41329;41.594;23.810;2023-04-30T13:32:54;1.80;;;1.70;;
55465;SDS011;41329;41.594;23.810;2023-04-30T13:35:20;1.65;;;1.40;;
55465;SDS011;41329;41.594;23.810;2023-04-30T13:37:46;1.80;;;1.70;;
55465;SDS011;41329;41.594;23.810;2023-04-30T13:40:16;1.90;;;1.48;;
55465;SDS011;41329;41.594;23.810;2023-04-30T13:42:44;1.83;;;1.73;;
55465;SDS011;41329;41.594;23.810;2023-04-30T13:45:10;1.83;;;1.73;;
55465;SDS011;41329;41.594;23.810;2023-04-30T13:47:36;1.58;;;1.48;;
55465;SDS011;41329;41.594;23.810;2023-04-30T13:50:02;1.13;;;1.13;;
55465;SDS011;41329;41.594;23.810;2023-04-30T13:52:29;1.30;;;1.30;;
55465;SDS011;41329;41.594;23.810;2023-04-30T13:54:54;3.78;;;3.55;;
55465;SDS011;41329;41.594;23.810;2023-04-30T13:57:21;11.55;;;10.50;;
55465;SDS011;41329;41.594;23.810;2023-04-30T13:59:48;2.15;;;1.83;;
55465;SDS011;41329;41.594;23.810;2023-04-30T14:02:13;3.08;;;1.77;;
55465;SDS011;41329;41.594;23.810;2023-04-30T14:04:39;2.25;;;1.92;;
55465;SDS011;41329;41.594;23.810;2023-04-30T14:07:04;1.98;;;1.73;;
55465;SDS011;41329;41.594;23.810;2023-04-30T14:09:30;2.00;;;1.77;;
55465;SDS011;41329;41.594;23.810;2023-04-30T14:11:55;1.45;;;1.35;;
55465;SDS011;41329;41.594;23.810;2023-04-30T14:14:24;2.78;;;2.58;;
55465;SDS011;41329;41.594;23.810;2023-04-30T14:16:50;1.05;;;0.98;;
55465;SDS011;41329;41.594;23.810;2023-04-30T14:19:15;1.67;;;1.00;;
55465;SDS011;41329;41.594;23.810;2023-04-30T14:21:41;1.05;;;1.05;;
55465;SDS011;41329;41.594;23.810;2023-04-30T14:24:06;1.58;;;1.48;;
55465;SDS011;41329;41.594;23.810;2023-04-30T14:26:33;1.98;;;1.55;;
55465;SDS011;41329;41.594;23.810;2023-04-30T14:28:58;1.95;;;1.58;;
55465;SDS011;41329;41.594;23.810;2023-04-30T14:31:23;1.15;;;1.02;;
55465;SDS011;41329;41.594;23.810;2023-04-30T14:33:49;1.00;;;1.00;;
55465;SDS011;41329;41.594;23.810;2023-04-30T14:36:14;1.60;;;1.02;;
55465;SDS011;41329;41.594;23.810;2023-04-30T14:38:41;1.48;;;1.23;;
55465;SDS011;41329;41.594;23.810;2023-04-30T14:41:06;1.27;;;1.27;;
55465;SDS011;41329;41.594;23.810;2023-04-30T14:43:31;1.42;;;1.33;;
55465;SDS011;41329;41.594;23.810;2023-04-30T14:45:57;1.55;;;1.45;;
55465;SDS011;41329;41.594;23.810;2023-04-30T14:48:22;0.90;;;0.70;;
55465;SDS011;41329;41.594;23.810;2023-04-30T14:50:48;1.33;;;1.05;;
55465;SDS011;41329;41.594;23.810;2023-04-30T14:53:13;1.02;;;0.98;;
55465;SDS011;41329;41.594;23.810;2023-04-30T14:55:39;1.20;;;1.10;;
55465;SDS011;41329;41.594;23.810;2023-04-30T14:58:04;1.50;;;1.40;;
55465;SDS011;41329;41.594;23.810;2023-04-30T15:00:30;1.23;;;1.23;;
55465;SDS011;41329;41.594;23.810;2023-04-30T15:02:56;1.33;;;1.10;;
55465;SDS011;41329;41.594;23.810;2023-04-30T15:05:21;1.45;;;1.38;;
55465;SDS011;41329;41.594;23.810;2023-04-30T15:07:47;1.25;;;1.15;;